createdAt,value
2023-05-09T00:02:22.175Z,13.93
2023-05-09T00:04:49.266Z,10.65
2023-05-09T00:07:16.254Z,11.30
2023-05-09T00:09:43.168Z,10.18
2023-05-09T00:12:10.192Z,15.10
2023-05-09T00:14:37.047Z,12.45
2023-05-09T00:17:03.942Z,10.35
2023-05-09T00:19:30.739Z,9.60
2023-05-09T00:21:57.582Z,10.43
2023-05-09T00:24:24.473Z,11.35
2023-05-09T00:26:51.307Z,10.05
2023-05-09T00:29:18.362Z,10.68
2023-05-09T00:31:45.166Z,10.60
2023-05-09T00:34:12.146Z,9.68
2023-05-09T00:36:38.954Z,10.60
2023-05-09T00:39:05.780Z,11.02
2023-05-09T00:41:32.603Z,11.63
2023-05-09T00:43:59.517Z,10.75
2023-05-09T00:46:26.634Z,9.95
2023-05-09T00:48:53.751Z,12.07
2023-05-09T00:51:21.497Z,9.90
2023-05-09T00:53:48.415Z,9.00
2023-05-09T00:56:15.664Z,10.35
2023-05-09T00:58:42.658Z,11.02
2023-05-09T01:01:09.641Z,11.93
2023-05-09T01:03:39.336Z,10.10
2023-05-09T01:06:45.314Z,11.90
2023-05-09T01:09:45.218Z,9.50
2023-05-09T01:15:02.168Z,8.35
2023-05-09T01:17:51.204Z,9.75
2023-05-09T01:20:34.855Z,9.75
2023-05-09T01:23:27.278Z,11.65
2023-05-09T01:26:06.353Z,11.95
2023-05-09T01:29:13.256Z,8.27
2023-05-09T01:31:42.304Z,9.65
2023-05-09T01:34:11.459Z,11.82
2023-05-09T01:36:42.396Z,16.42
2023-05-09T01:39:13.550Z,10.20
2023-05-09T01:41:40.527Z,9.00
2023-05-09T01:44:11.837Z,9.13
2023-05-09T01:46:39.757Z,10.25
2023-05-09T01:49:09.094Z,11.43
2023-05-09T01:51:37.949Z,10.38
2023-05-09T01:56:36.082Z,9.60
2023-05-09T01:59:03.808Z,8.88
2023-05-09T02:01:31.592Z,8.73
2023-05-09T02:03:59.715Z,11.32
2023-05-09T02:06:29.793Z,9.70
2023-05-09T02:08:58.111Z,11.20
2023-05-09T02:11:26.218Z,10.55
2023-05-09T02:13:53.077Z,9.55
2023-05-09T02:16:21.075Z,10.02
2023-05-09T02:18:48.570Z,9.38
2023-05-09T02:21:15.465Z,9.32
2023-05-09T02:23:42.328Z,11.15
2023-05-09T02:26:09.378Z,10.38
2023-05-09T02:28:36.834Z,16.50
2023-05-09T02:31:07.022Z,9.32
2023-05-09T02:33:35.922Z,9.23
2023-05-09T02:36:03.394Z,10.60
2023-05-09T02:38:30.250Z,9.65
2023-05-09T02:40:57.170Z,9.90
2023-05-09T02:43:26.828Z,9.10
2023-05-09T02:45:55.293Z,12.15
2023-05-09T02:48:22.243Z,9.00
2023-05-09T02:50:49.140Z,8.48
2023-05-09T02:53:16.207Z,11.35
2023-05-09T02:55:43.002Z,15.15
2023-05-09T02:58:14.119Z,9.88
2023-05-09T03:00:43.115Z,10.82
2023-05-09T03:03:10.760Z,11.20
2023-05-09T03:05:37.757Z,9.80
2023-05-09T03:08:05.129Z,9.88
2023-05-09T03:10:34.144Z,11.75
2023-05-09T03:13:01.295Z,9.95
2023-05-09T03:15:28.251Z,8.43
2023-05-09T03:17:56.424Z,8.48
2023-05-09T03:20:23.263Z,7.53
2023-05-09T03:22:50.155Z,9.13
2023-05-09T03:25:17.341Z,9.32
2023-05-09T03:27:44.977Z,11.20
2023-05-09T03:32:44.184Z,7.90
2023-05-09T03:35:11.119Z,8.38
2023-05-09T03:37:38.210Z,9.60
2023-05-09T03:40:07.848Z,10.90
2023-05-09T03:42:41.149Z,9.75
2023-05-09T03:45:08.813Z,9.25
2023-05-09T03:47:35.666Z,11.10
2023-05-09T03:50:04.127Z,8.90
2023-05-09T03:52:31.597Z,8.65
2023-05-09T03:54:58.767Z,9.32
2023-05-09T03:57:25.936Z,8.82
2023-05-09T03:59:55.609Z,9.40
2023-05-09T04:02:23.694Z,8.38
2023-05-09T04:04:51.015Z,8.93
2023-05-09T04:07:20.723Z,8.82
2023-05-09T04:09:47.590Z,9.68
2023-05-09T04:12:14.412Z,10.13
2023-05-09T04:14:41.568Z,12.57
2023-05-09T04:17:09.035Z,9.73
2023-05-09T04:19:35.928Z,10.75
2023-05-09T04:22:02.931Z,11.80
2023-05-09T04:24:30.994Z,11.18
2023-05-09T04:26:58.447Z,9.45
2023-05-09T04:29:26.634Z,10.63
2023-05-09T04:31:55.654Z,8.93
2023-05-09T04:34:26.990Z,11.30
2023-05-09T04:36:55.672Z,7.95
2023-05-09T04:39:22.592Z,12.48
2023-05-09T04:41:58.975Z,9.07
2023-05-09T04:44:26.691Z,9.15
2023-05-09T04:46:55.135Z,8.48
2023-05-09T04:49:21.975Z,8.18
2023-05-09T04:51:48.773Z,8.77
2023-05-09T04:54:15.834Z,9.02
2023-05-09T04:56:43.474Z,8.30
2023-05-09T04:59:10.532Z,9.05
2023-05-09T05:01:37.393Z,9.07
2023-05-09T05:04:04.587Z,8.32
2023-05-09T05:06:32.916Z,10.82
2023-05-09T05:09:00.543Z,13.65
2023-05-09T05:11:27.930Z,10.63
2023-05-09T05:13:55.867Z,9.00
2023-05-09T05:16:23.084Z,8.30
2023-05-09T05:18:49.994Z,10.13
2023-05-09T05:21:18.380Z,14.05
2023-05-09T05:23:45.722Z,8.15
2023-05-09T05:26:13.770Z,8.30
2023-05-09T05:28:40.868Z,9.20
2023-05-09T05:31:08.042Z,8.13
2023-05-09T05:33:34.898Z,8.65
2023-05-09T05:36:02.888Z,7.60
2023-05-09T05:38:29.690Z,8.05
2023-05-09T05:40:58.434Z,8.27
2023-05-09T05:43:26.753Z,8.10
2023-05-09T05:45:54.352Z,7.75
2023-05-09T05:48:23.437Z,8.32
2023-05-09T05:50:51.499Z,8.60
2023-05-09T05:53:22.367Z,8.00
2023-05-09T05:55:50.804Z,6.97
2023-05-09T05:58:17.644Z,8.07
2023-05-09T06:00:44.699Z,11.65
2023-05-09T06:03:16.332Z,9.05
2023-05-09T06:05:55.819Z,6.53
2023-05-09T06:08:22.612Z,6.90
2023-05-09T06:10:49.483Z,6.38
2023-05-09T06:13:16.424Z,9.00
2023-05-09T06:15:48.237Z,6.70
2023-05-09T06:18:16.059Z,6.70
2023-05-09T06:20:42.862Z,5.85
2023-05-09T06:23:09.674Z,5.07
2023-05-09T06:25:36.498Z,7.63
2023-05-09T06:28:03.571Z,7.40
2023-05-09T06:30:30.516Z,5.68
2023-05-09T06:32:58.264Z,7.53
2023-05-09T06:35:25.321Z,9.13
2023-05-09T06:37:52.084Z,6.25
2023-05-09T06:40:19.240Z,5.15
2023-05-09T06:42:46.124Z,5.70
2023-05-09T06:45:13.330Z,9.65
2023-05-09T06:47:40.653Z,5.13
2023-05-09T06:50:08.518Z,11.85
2023-05-09T06:52:35.818Z,6.63
2023-05-09T06:55:03.634Z,5.38
2023-05-09T06:57:30.681Z,5.18
2023-05-09T06:59:57.532Z,8.52
2023-05-09T07:02:24.485Z,5.53
2023-05-09T07:04:51.318Z,6.97
2023-05-09T07:07:18.165Z,5.75
2023-05-09T07:09:45.036Z,6.05
2023-05-09T07:12:11.827Z,5.32
2023-05-09T07:14:38.687Z,5.88
2023-05-09T07:17:21.223Z,6.13
2023-05-09T07:19:49.419Z,5.57
2023-05-09T07:22:16.263Z,6.80
2023-05-09T07:24:44.410Z,5.20
2023-05-09T07:27:11.229Z,7.88
2023-05-09T07:29:38.169Z,6.38
2023-05-09T07:32:05.321Z,5.63
2023-05-09T07:34:32.230Z,4.88
2023-05-09T07:36:59.030Z,5.60
2023-05-09T07:39:26.003Z,5.88
2023-05-09T07:41:52.824Z,5.78
2023-05-09T07:44:19.596Z,6.35
2023-05-09T07:46:46.686Z,6.07
2023-05-09T07:49:13.495Z,5.60
2023-05-09T07:51:41.269Z,6.63
2023-05-09T07:54:09.857Z,6.53
2023-05-09T07:56:37.072Z,6.43
2023-05-09T07:59:03.960Z,7.20
2023-05-09T08:01:30.815Z,5.35
2023-05-09T08:03:57.728Z,4.93
2023-05-09T08:06:24.622Z,5.13
2023-05-09T08:08:51.396Z,7.53
2023-05-09T08:11:18.293Z,6.25
2023-05-09T08:13:45.270Z,6.78
2023-05-09T08:16:12.093Z,6.05
2023-05-09T08:18:38.897Z,5.93
2023-05-09T08:21:05.742Z,5.70
2023-05-09T08:23:32.913Z,7.28
2023-05-09T08:25:59.749Z,6.40
2023-05-09T08:28:28.475Z,6.07
2023-05-09T08:30:56.704Z,6.38
2023-05-09T08:33:24.033Z,5.93
2023-05-09T08:35:52.357Z,7.93
2023-05-09T08:38:19.958Z,5.45
2023-05-09T08:40:47.138Z,6.35
2023-05-09T08:43:16.394Z,5.72
2023-05-09T08:45:51.340Z,5.72
2023-05-09T08:48:19.215Z,4.93
2023-05-09T08:50:46.185Z,5.00
2023-05-09T08:53:13.715Z,6.70
2023-05-09T08:55:40.774Z,6.63
2023-05-09T08:58:11.571Z,4.72
2023-05-09T09:00:39.338Z,3.97
2023-05-09T09:03:07.436Z,4.82
2023-05-09T09:05:41.932Z,6.78
2023-05-09T09:08:14.203Z,4.57
2023-05-09T09:10:47.068Z,4.13
2023-05-09T09:13:15.454Z,4.85
2023-05-09T09:15:46.244Z,6.47
2023-05-09T09:18:22.369Z,5.30
2023-05-09T09:20:55.921Z,5.07
2023-05-09T09:23:26.225Z,6.22
2023-05-09T09:26:01.400Z,5.45
2023-05-09T09:28:28.654Z,4.82
2023-05-09T09:30:55.655Z,7.95
2023-05-09T09:33:24.332Z,3.85
2023-05-09T09:35:53.534Z,5.60
2023-05-09T09:38:22.124Z,4.35
2023-05-09T09:40:53.847Z,4.25
2023-05-09T09:43:20.999Z,4.93
2023-05-09T09:45:51.459Z,3.42
2023-05-09T09:48:18.419Z,4.00
2023-05-09T09:50:48.229Z,5.05
2023-05-09T09:55:51.111Z,3.50
2023-05-09T09:58:22.005Z,3.85
2023-05-09T10:01:08.772Z,4.03
2023-05-09T10:03:38.072Z,4.05
2023-05-09T10:06:05.428Z,4.55
2023-05-09T10:08:32.271Z,2.90
2023-05-09T10:11:00.115Z,3.28
2023-05-09T10:13:28.239Z,4.22
2023-05-09T10:15:58.091Z,2.70
2023-05-09T10:18:29.053Z,2.92
2023-05-09T10:21:01.897Z,3.17
2023-05-09T10:23:31.228Z,4.50
2023-05-09T10:26:28.738Z,2.28
2023-05-09T10:28:57.790Z,1.38
2023-05-09T10:31:29.853Z,2.77
2023-05-09T10:33:57.046Z,2.78
2023-05-09T10:36:24.872Z,7.40
2023-05-09T10:38:54.541Z,3.00
2023-05-09T10:41:22.401Z,3.38
2023-05-09T10:43:49.348Z,2.85
2023-05-09T10:46:17.407Z,3.13
2023-05-09T10:48:44.685Z,2.60
2023-05-09T10:51:13.043Z,3.47
2023-05-09T10:53:55.763Z,4.35
2023-05-09T10:56:34.320Z,3.25
2023-05-09T10:59:01.350Z,2.58
2023-05-09T11:01:39.089Z,3.10
2023-05-09T11:04:12.634Z,3.40
2023-05-09T11:06:52.557Z,4.45
2023-05-09T11:09:38.660Z,5.03
2023-05-09T11:12:05.508Z,4.10
2023-05-09T11:14:45.555Z,2.30
2023-05-09T11:17:22.559Z,2.85
2023-05-09T11:19:49.718Z,5.63
2023-05-09T11:22:33.523Z,5.53
2023-05-09T11:25:17.010Z,2.65
2023-05-09T11:27:52.006Z,3.25
2023-05-09T11:30:20.622Z,3.33
2023-05-09T11:32:53.597Z,3.58
2023-05-09T11:35:23.362Z,3.25
2023-05-09T11:38:05.472Z,5.05
2023-05-09T11:40:34.750Z,5.78
2023-05-09T11:43:02.132Z,2.75
2023-05-09T11:45:33.289Z,2.08
2023-05-09T11:48:01.161Z,3.92
2023-05-09T11:50:29.271Z,3.80
2023-05-09T11:52:56.308Z,5.13
2023-05-09T11:55:24.077Z,3.05
2023-05-09T11:57:53.603Z,3.85
2023-05-09T12:00:23.484Z,4.18
2023-05-09T12:02:54.127Z,2.83
2023-05-09T12:05:22.752Z,7.03
2023-05-09T12:07:50.157Z,3.65
2023-05-09T12:10:25.460Z,3.90
2023-05-09T12:12:57.089Z,4.03
2023-05-09T12:15:24.412Z,3.60
2023-05-09T12:18:10.909Z,4.00
2023-05-09T12:20:48.079Z,2.70
2023-05-09T12:23:15.609Z,2.78
2023-05-09T12:25:56.216Z,2.85
2023-05-09T12:28:24.409Z,2.75
2023-05-09T12:30:52.692Z,3.70
2023-05-09T12:33:20.292Z,4.05
2023-05-09T12:35:49.241Z,3.58
2023-05-09T12:38:22.507Z,3.50
2023-05-09T12:41:03.492Z,3.25
2023-05-09T12:43:36.257Z,5.60
2023-05-09T12:46:03.934Z,2.95
2023-05-09T12:48:38.428Z,3.40
2023-05-09T12:51:06.512Z,3.50
2023-05-09T12:53:39.797Z,5.32
2023-05-09T12:56:23.248Z,3.53
2023-05-09T12:58:52.950Z,3.80
2023-05-09T13:01:22.214Z,4.20
2023-05-09T13:04:04.747Z,5.55
2023-05-09T13:06:32.211Z,2.65
2023-05-09T13:09:02.187Z,2.08
2023-05-09T13:11:29.375Z,4.57
2023-05-09T13:13:56.202Z,2.10
2023-05-09T13:16:23.556Z,3.10
2023-05-09T13:18:50.383Z,2.65
2023-05-09T13:21:17.313Z,2.38
2023-05-09T13:23:45.694Z,2.55
2023-05-09T13:26:12.615Z,1.98
2023-05-09T13:28:40.628Z,2.53
2023-05-09T13:31:07.998Z,2.50
2023-05-09T13:33:35.023Z,2.38
2023-05-09T13:36:04.300Z,1.98
2023-05-09T13:38:32.290Z,2.30
2023-05-09T13:41:00.135Z,5.60
2023-05-09T13:43:27.313Z,1.67
2023-05-09T13:45:54.270Z,3.53
2023-05-09T13:48:21.146Z,3.38
2023-05-09T13:50:47.977Z,3.63
2023-05-09T13:53:14.803Z,4.18
2023-05-09T13:55:41.601Z,2.40
2023-05-09T13:58:08.400Z,4.93
2023-05-09T14:00:35.480Z,5.22
2023-05-09T14:03:03.307Z,2.30
2023-05-09T14:05:33.841Z,1.75
2023-05-09T14:08:01.869Z,2.20
2023-05-09T14:10:28.927Z,1.80
2023-05-09T14:12:56.386Z,2.40
2023-05-09T14:15:23.506Z,2.15
2023-05-09T14:17:50.682Z,2.25
2023-05-09T14:20:17.691Z,1.48
2023-05-09T14:22:44.943Z,17.95
2023-05-09T14:25:12.157Z,5.03
2023-05-09T14:27:39.031Z,2.20
2023-05-09T14:30:06.662Z,2.33
2023-05-09T14:32:33.482Z,2.97
2023-05-09T14:35:00.707Z,1.30
2023-05-09T14:37:29.261Z,2.40
2023-05-09T14:39:56.108Z,2.58
2023-05-09T14:42:22.941Z,2.55
2023-05-09T14:44:49.891Z,3.28
2023-05-09T14:47:16.824Z,1.85
2023-05-09T14:49:44.162Z,2.58
2023-05-09T14:52:10.968Z,2.10
2023-05-09T14:54:39.681Z,2.78
2023-05-09T14:57:07.529Z,2.88
2023-05-09T14:59:37.468Z,3.33
2023-05-09T15:02:04.409Z,2.20
2023-05-09T15:04:31.650Z,2.03
2023-05-09T15:06:58.868Z,1.92
2023-05-09T15:09:26.430Z,1.60
2023-05-09T15:11:53.924Z,2.97
2023-05-09T15:14:20.739Z,2.70
2023-05-09T15:16:48.511Z,2.33
2023-05-09T15:19:15.404Z,3.67
2023-05-09T15:21:42.173Z,2.85
2023-05-09T15:24:09.012Z,4.40
2023-05-09T15:26:35.791Z,2.58
2023-05-09T15:29:02.613Z,2.25
2023-05-09T15:31:33.605Z,4.93
2023-05-09T15:34:01.309Z,3.70
2023-05-09T15:36:32.040Z,2.42
2023-05-09T15:38:58.892Z,3.20
2023-05-09T15:41:31.523Z,2.33
2023-05-09T15:43:58.462Z,2.97
2023-05-09T15:46:25.337Z,2.90
2023-05-09T15:48:54.687Z,2.40
2023-05-09T15:51:23.060Z,2.95
2023-05-09T15:53:49.970Z,4.00
2023-05-09T15:56:16.933Z,2.22
2023-05-09T15:58:43.798Z,5.72
2023-05-09T16:01:12.861Z,3.22
2023-05-09T16:03:39.923Z,3.33
2023-05-09T16:06:07.466Z,2.17
2023-05-09T16:08:34.289Z,3.40
2023-05-09T16:11:01.835Z,4.22
2023-05-09T16:13:29.815Z,4.80
2023-05-09T16:15:56.957Z,2.25
2023-05-09T16:18:24.037Z,3.78
2023-05-09T16:20:50.926Z,3.58
2023-05-09T16:23:17.676Z,2.25
2023-05-09T16:25:44.903Z,2.05
2023-05-09T16:28:11.779Z,3.40
2023-05-09T16:30:38.556Z,3.35
2023-05-09T16:33:05.367Z,3.03
2023-05-09T16:35:32.218Z,4.10
2023-05-09T16:37:59.096Z,4.50
2023-05-09T16:40:25.933Z,3.95
2023-05-09T16:42:53.751Z,3.00
2023-05-09T16:45:20.614Z,2.22
2023-05-09T16:47:47.457Z,5.50
2023-05-09T16:50:14.610Z,5.28
2023-05-09T16:52:41.624Z,4.13
2023-05-09T16:55:08.683Z,3.10
2023-05-09T16:57:35.518Z,4.22
2023-05-09T17:00:02.492Z,2.90
2023-05-09T17:02:29.407Z,1.98
2023-05-09T17:04:56.579Z,3.83
2023-05-09T17:07:23.387Z,3.92
2023-05-09T17:09:50.209Z,2.50
2023-05-09T17:12:18.188Z,2.83
2023-05-09T17:14:47.147Z,2.03
2023-05-09T17:17:14.714Z,3.85
2023-05-09T17:19:41.530Z,3.13
2023-05-09T17:22:08.659Z,4.80
2023-05-09T17:24:35.574Z,5.30
2023-05-09T17:27:02.628Z,2.47
2023-05-09T17:29:30.606Z,4.45
2023-05-09T17:32:00.753Z,4.05
2023-05-09T17:34:28.667Z,2.22
2023-05-09T17:36:56.126Z,2.10
2023-05-09T17:39:23.761Z,2.60
2023-05-09T17:41:50.585Z,2.20
2023-05-09T17:44:17.389Z,3.47
2023-05-09T17:46:44.335Z,6.22
2023-05-09T17:49:13.791Z,4.80
2023-05-09T17:51:40.859Z,1.08
2023-05-09T17:54:07.719Z,1.35
2023-05-09T17:56:34.616Z,2.50
2023-05-09T17:59:01.538Z,3.70
2023-05-09T18:01:29.016Z,3.05
2023-05-09T18:03:56.860Z,3.35
2023-05-09T18:06:23.948Z,2.28
2023-05-09T18:08:50.866Z,1.10
2023-05-09T18:11:17.742Z,1.98
2023-05-09T18:13:44.540Z,1.77
2023-05-09T18:16:11.388Z,2.28
2023-05-09T18:18:38.232Z,4.60
2023-05-09T18:21:05.374Z,3.92
2023-05-09T18:23:32.267Z,5.10
2023-05-09T18:25:59.180Z,3.55
2023-05-09T18:28:27.326Z,1.55
2023-05-09T18:30:55.646Z,2.45
2023-05-09T18:33:24.150Z,3.90
2023-05-09T18:35:52.974Z,6.00
2023-05-09T18:38:19.809Z,27.10
2023-05-09T18:40:47.360Z,18.52
2023-05-09T18:43:15.284Z,15.82
2023-05-09T18:45:44.831Z,14.18
2023-05-09T18:48:11.645Z,12.75
2023-05-09T18:50:38.987Z,5.93
2023-05-09T18:53:05.852Z,5.03
2023-05-09T18:55:33.378Z,5.70
2023-05-09T18:58:00.174Z,8.55
2023-05-09T19:00:27.408Z,3.40
2023-05-09T19:02:57.981Z,6.65
2023-05-09T19:05:28.598Z,2.28
2023-05-09T19:07:57.515Z,3.45
2023-05-09T19:10:25.244Z,3.80
2023-05-09T19:12:52.688Z,2.58
2023-05-09T19:15:21.011Z,2.10
2023-05-09T19:17:49.248Z,3.15
2023-05-09T19:20:18.750Z,5.05
2023-05-09T19:22:53.680Z,4.38
2023-05-09T19:25:21.369Z,2.20
2023-05-09T19:27:48.473Z,2.88
2023-05-09T19:30:17.010Z,2.55
2023-05-09T19:32:46.022Z,6.47
2023-05-09T19:35:15.759Z,6.60
2023-05-09T19:37:44.806Z,3.70
2023-05-09T19:40:14.887Z,7.20
2023-05-09T19:42:43.432Z,2.67
2023-05-09T19:45:17.732Z,3.13
2023-05-09T19:47:46.675Z,3.38
2023-05-09T19:50:15.979Z,5.63
2023-05-09T19:52:45.772Z,2.67
2023-05-09T19:55:16.470Z,3.22
2023-05-09T19:57:51.839Z,3.45
2023-05-09T20:00:21.212Z,1.60
2023-05-09T20:02:49.592Z,2.90
2023-05-09T20:05:18.237Z,1.90
2023-05-09T20:07:45.498Z,1.73
2023-05-09T20:10:14.217Z,1.20
2023-05-09T20:12:41.974Z,2.38
2023-05-09T20:15:09.787Z,4.07
2023-05-09T20:17:37.196Z,1.80
2023-05-09T20:20:05.381Z,1.70
2023-05-09T20:22:33.605Z,2.20
2023-05-09T20:25:00.477Z,2.70
2023-05-09T20:27:27.345Z,2.75
2023-05-09T20:29:56.375Z,2.25
2023-05-09T20:32:24.328Z,1.98
2023-05-09T20:34:51.156Z,3.20
2023-05-09T20:37:18.028Z,2.50
2023-05-09T20:39:45.585Z,3.13
2023-05-09T20:42:12.464Z,1.27
2023-05-09T20:44:41.954Z,2.05
2023-05-09T20:47:09.818Z,3.25
2023-05-09T20:49:36.761Z,2.67
2023-05-09T20:52:03.736Z,2.95
2023-05-09T20:54:30.953Z,2.47
2023-05-09T20:56:57.796Z,4.07
2023-05-09T20:59:24.671Z,3.72
2023-05-09T21:01:52.167Z,3.67
2023-05-09T21:04:19.101Z,4.45
2023-05-09T21:06:45.895Z,4.93
2023-05-09T21:09:12.767Z,2.63
2023-05-09T21:11:39.720Z,4.65
2023-05-09T21:14:08.057Z,3.47
2023-05-09T21:16:35.264Z,5.30
2023-05-09T21:19:04.809Z,5.75
2023-05-09T21:21:35.730Z,3.22
2023-05-09T21:24:04.235Z,2.65
2023-05-09T21:26:31.181Z,2.17
2023-05-09T21:28:57.998Z,1.33
2023-05-09T21:31:24.919Z,2.20
2023-05-09T21:33:51.998Z,1.35
2023-05-09T21:36:18.816Z,2.00
2023-05-09T21:38:45.651Z,3.47
2023-05-09T21:41:12.579Z,3.55
2023-05-09T21:43:39.485Z,3.45
2023-05-09T21:46:06.435Z,1.60
2023-05-09T21:48:33.365Z,5.10
2023-05-09T21:51:03.970Z,1.83
2023-05-09T21:53:30.805Z,2.63
2023-05-09T21:55:57.582Z,3.03
2023-05-09T21:58:24.419Z,3.60
2023-05-09T22:00:51.280Z,1.70
2023-05-09T22:03:18.174Z,10.60
2023-05-09T22:05:45.150Z,3.42
2023-05-09T22:08:12.074Z,2.45
2023-05-09T22:10:38.977Z,2.13
2023-05-09T22:13:05.857Z,4.63
2023-05-09T22:15:32.730Z,2.75
2023-05-09T22:18:00.128Z,1.15
2023-05-09T22:20:27.100Z,3.22
2023-05-09T22:22:53.906Z,1.52
2023-05-09T22:25:20.881Z,2.03
2023-05-09T22:27:47.760Z,2.78
2023-05-09T22:30:14.842Z,1.67
2023-05-09T22:32:41.994Z,3.65
2023-05-09T22:35:09.245Z,1.63
2023-05-09T22:37:36.299Z,1.77
2023-05-09T22:40:03.519Z,2.15
2023-05-09T22:42:30.299Z,4.03
2023-05-09T22:44:57.291Z,1.25
2023-05-09T22:47:24.157Z,2.88
2023-05-09T22:49:51.003Z,4.03
2023-05-09T22:52:17.842Z,1.25
2023-05-09T22:54:44.942Z,1.85
2023-05-09T22:57:12.171Z,2.55
2023-05-09T22:59:39.005Z,5.53
2023-05-09T23:02:05.891Z,2.28
2023-05-09T23:04:32.768Z,1.58
2023-05-09T23:06:59.561Z,2.13
2023-05-09T23:09:26.789Z,1.15
2023-05-09T23:11:53.638Z,7.10
2023-05-09T23:14:21.274Z,1.35
2023-05-09T23:16:49.073Z,1.63
2023-05-09T23:19:15.863Z,1.88
2023-05-09T23:21:42.660Z,2.47
2023-05-09T23:24:09.535Z,1.05
2023-05-09T23:26:36.325Z,3.60
2023-05-09T23:29:03.111Z,1.55
2023-05-09T23:31:29.972Z,0.57
2023-05-09T23:33:56.823Z,1.38
2023-05-09T23:36:23.616Z,1.38
2023-05-09T23:38:50.447Z,0.40
2023-05-09T23:41:17.258Z,0.77
2023-05-09T23:43:44.183Z,0.20
2023-05-09T23:46:11.316Z,1.02
2023-05-09T23:48:38.261Z,0.50
2023-05-09T23:51:05.565Z,0.40
2023-05-09T23:53:34.973Z,2.10
2023-05-09T23:56:02.767Z,1.65
2023-05-09T23:58:29.529Z,1.33
